METAR Data
IDs: Format: Raw Decoded Include TAF

Data at: 1810 UTC 21 Sep 2018

KBMQ 211753Z AUTO 17006KT 10SM FEW024 SCT030 28/22 A2999 RMK AO2 SLP136 T02780222 10278 20244 58002
KBMQ 211653Z AUTO 17008G15KT 10SM FEW016 SCT021 27/23 A3000 RMK AO2 SLP141 T02670228
KBMQ 211640Z AUTO 15010KT 10SM SCT015 SCT021 27/23 A3000 RMK AO2 T02670233
KBMQ 211609Z AUTO 17009G17KT 10SM SCT015 BKN020 26/23 A3001 RMK AO2 T02610228
KBMQ 211553Z AUTO 18010G18KT 10SM FEW015 26/23 A3001 RMK AO2 SLP143 T02610228
KBMQ 211527Z AUTO 17008G17KT 10SM SCT009 SCT017 26/23 A3000 RMK AO2 T02610233
KBMQ 211453Z AUTO 16008KT 10SM BKN009 BKN013 OVC120 26/23 A3000 RMK AO2 SLP140 T02560233 53012
KBMQ 211353Z AUTO 15007KT 10SM OVC007 25/23 A2999 RMK AO2 CIG 005V011 SLP138 T02500233
KBMQ 211304Z AUTO 16004KT 10SM BKN008 OVC014 24/23 A2997 RMK AO2 CIG 006V011 T02440233
KBMQ 211253Z AUTO 16005KT 10SM SCT006 BKN015 24/23 A2997 RMK AO2 SLP131 T02440233
KBMQ 211153Z AUTO VRB06KT 10SM OVC006 24/23 A2996 RMK AO2 SLP128 70075 T02440233 10244 20239 52004
KBMQ 211053Z AUTO 00000KT 10SM OVC006 24/23 A2996 RMK AO2 SLP127 T02440233
KBMQ 211005Z AUTO 16007KT 10SM OVC006 24/23 A2995 RMK AO2 CIG 005V010 T02440233
KBMQ 210953Z AUTO 17006KT 10SM BKN007 OVC013 24/23 A2995 RMK AO2 CIG 005V010 SLP123 T02440233
KBMQ 210901Z AUTO 16007KT 10SM BKN006 OVC010 24/23 A2995 RMK AO2 T02440233
KBMQ 210853Z AUTO 16006KT 10SM OVC008 24/23 A2995 RMK AO2 CIG 005V011 SLP124 T02440233 58009
KBMQ 210823Z AUTO 16008G16KT 10SM BKN008 OVC015 24/23 A2996 RMK AO2 CIG 005V011 T02440233
KBMQ 210808Z AUTO 15008KT 9SM BKN006 BKN010 OVC015 24/23 A2996 RMK AO2 T02440233
KBMQ 210753Z AUTO 15006KT 9SM OVC007 24/23 A2996 RMK AO2 CIG 005V009 SLP126 T02440233
KBMQ 210742Z AUTO 14006KT 9SM BKN007 OVC011 24/23 A2996 RMK AO2 CIG 004V009 T02440233
KBMQ 210653Z AUTO 16005KT 10SM OVC005 24/23 A2997 RMK AO2 CIG 004V010 SLP131 T02440233
KBMQ 210553Z AUTO 16007KT 9SM OVC006 24/23 A2997 RMK AO2 SLP132 60009 T02390233 10239 20222 403000217 58002
KBMQ 210530Z AUTO 14008KT 8SM BKN005 OVC013 24/23 A2998 RMK AO2 CIG 004V009 T02390233
KBMQ 210453Z AUTO 14006KT 7SM OVC004 24/23 A2998 RMK AO2 SLP135 T02390233
KBMQ 210442Z AUTO 16007KT 7SM OVC004 24/23 A2999 RMK AO2 T02390228
KBMQ 210353Z AUTO 15007KT 10SM OVC006 24/23 A2999 RMK AO2 SLP137 T02390228
KBMQ 210341Z AUTO 15004KT 10SM OVC006 23/23 A2999 RMK AO2 T02330228
KBMQ 210253Z AUTO 14006KT 10SM OVC008 23/22 A2998 RMK AO2 SLP135 60009 T02280222 53009
KBMQ 210224Z AUTO 13006KT 10SM OVC009 23/22 A2997 RMK AO2 T02280217
KBMQ 210153Z AUTO 14005KT 10SM BKN013 OVC080 23/22 A2997 RMK AO2 SLP131 T02280217
KBMQ 210139Z AUTO 14004KT 10SM BKN014 OVC080 23/22 A2996 RMK AO2 T02280217
KBMQ 210053Z AUTO 16004KT 10SM SCT008 BKN050 OVC060 22/22 A2995 RMK AO2 RAE31B38E47 SLP126 P0009 T02220217
KBMQ 210048Z AUTO 16003KT 10SM SCT008 BKN050 OVC080 22/22 A2995 RMK AO2 RAE31B38E47 P0009
KBMQ 210036Z AUTO 14008KT 10SM BKN008 BKN033 OVC055 22/22 A2995 RMK AO2 RAE31 P0009 T02220217
KBMQ 210018Z AUTO 15006KT 3SM -RA BR SCT008 BKN055 OVC075 22/21 A2995 RMK AO2 P0009 T02220211
KBMQ 210008Z AUTO 17010G14KT 1 1/2SM +RA BR SCT008 BKN055 OVC070 22/21 A2995 RMK AO2 P0007 T02220211
KBMQ 202353Z AUTO VRB06KT 10SM -RA FEW014 BKN060 OVC100 22/21 A2995 RMK AO2 RAE2254B34 SLP124 P0001 60066 T02220206 10300 20217 55002
KBMQ 202253Z AUTO 11003KT 10SM -RA OVC075 26/23 A2993 RMK AO2 RAB23 SLP119 P0000 T02560233
KBMQ 202153Z AUTO 13005KT 10SM CLR 27/23 A2993 RMK AO2 LTG DSNT NE AND W RAE2058 SLP117 P0000 T02670233
KBMQ 202111Z AUTO 08004KT 10SM FEW080 OVC110 24/21 A2995 RMK AO2 LTG DSNT NE AND E RAE2058 P0000 T02390211
KBMQ 202053Z AUTO 09003KT 10SM VCTS -RA SCT026 OVC100 22/21 A2995 RMK AO2 PK WND 19034/2020 LTG DSNT E RAB10 TSB20E53 SLP126 P0061 60065 T02220206 55014
KBMQ 202048Z AUTO 11003KT 4SM -TSRA BR BKN028 BKN075 OVC110 22/21 A2995 RMK AO2 PK WND 19034/2020 LTG DSNT E AND SE RAB10 TSB20 P0061
KBMQ 202045Z AUTO VRB03KT 1 1/2SM +TSRA BR BKN028 BKN075 OVC100 22/21 A2995 RMK AO2 PK WND 19034/2020 LTG DSNT E AND SE RAB10 TSB20 P0061 T02170206
KBMQ 202033Z AUTO 14010G19KT 1/2SM +TSRA FG BKN020 BKN049 OVC110 22/21 A2997 RMK AO2 PK WND 19034/2020 LTG DSNT E-S RAB10 TSB20 P0047 T02170206
KBMQ 202023Z AUTO 18018G34KT 3/4SM +TSRA BR SCT014 SCT031 BKN050 23/21 A2998 RMK AO2 PK WND 19034/2020 LTG DSNT ALQDS RAB10 TSB20 PRESRR P0018 T02280211
KBMQ 202021Z AUTO 18023G34KT 1 1/2SM -TSRA BR FEW018 SCT039 BKN055 24/22 A2998 RMK AO2 PK WND 19034/2020 LTG DSNT ALQDS RAB10 TSB20 PRESRR P0009 T02440222
KBMQ 201953Z AUTO 09005KT 10SM VCTS FEW025 FEW036 BKN110 27/23 A2994 RMK AO2 LTG DSNT ALQDS RAB10E46 SLP120 P0004 T02670228
KBMQ 201932Z AUTO 09006KT 3SM +RA SCT026 BKN036 OVC110 27/23 A2995 RMK AO2 LTG DSNT W AND NW RAB10 P0004 T02670233
KBMQ 201917Z AUTO 13007G16KT 10SM VCTS -RA SCT026 SCT033 BKN040 28/22 A2996 RMK AO2 LTG DSNT NE AND NW RAB10 P0000 T02780217
KBMQ 201853Z AUTO 14010KT 10SM BKN120 29/22 A2998 RMK AO2 LTG DSNT NE AND E SLP131 T02940222
KBMQ 201841Z AUTO 14009KT 10SM FEW021 FEW055 BKN120 29/22 A2998 RMK AO2 LTG DSNT N-SE T02940222
KBMQ 201826Z AUTO 15009KT 10SM VCTS FEW019 SCT028 BKN055 29/21 A2998 RMK AO2 LTG DSNT NE AND E T02890206
KBMQ 201818Z AUTO 14008KT 10SM SCT021 SCT028 BKN049 29/23 A2999 RMK AO2 LTG DSNT NE-SE T02890228
KBMQ 201803Z AUTO VRB06KT 10SM VCTS SCT021 SCT090 28/23 A2999 RMK AO2 LTG DSNT NE-SE T02830228
KBMQ 201753Z AUTO 14005KT 10SM FEW040 FEW060 28/23 A2999 RMK AO2 LTG DSNT E AND SE RAE04 TSE09 SLP138 P0000 60000 T02830228 10283 20233 58009
KBMQ 201744Z AUTO 18006KT 10SM FEW032 FEW040 SCT050 28/23 A3000 RMK AO2 LTG DSNT E AND SE RAE04 TSE09 P0000 T02780228
KBMQ 201723Z AUTO 20005KT 10SM VCTS FEW019 BKN030 BKN040 26/22 A3001 RMK AO2 LTG DSNT SE AND S RAE04 TSE09 P0000 T02560222
KBMQ 201715Z AUTO 22005KT 10SM SCT021 BKN027 OVC065 24/21 A3002 RMK AO2 LTG DSNT SE AND S RAE04 TSE09 P0000 T02440211
KBMQ 201653Z AUTO 16006KT 10SM -TSRA FEW018 BKN023 BKN060 27/23 A3002 RMK AO2 LTG DSNT S RAB50 TSB42 SLP148 P0000 T02670228
KBMQ 201648Z AUTO 16008KT 10SM TS FEW018 SCT024 BKN033 27/23 A3003 RMK AO2 LTG DSNT S TSB42
KBMQ 201629Z AUTO 17008KT 10SM VCTS SCT017 BKN024 BKN065 27/23 A3002 RMK AO2 T02670228
KBMQ 201616Z AUTO 16006KT 10SM SCT015 BKN020 BKN028 27/23 A3003 RMK AO2 T02670228
KBMQ 201553Z AUTO VRB04KT 10SM SCT015 BKN049 BKN060 27/23 A3002 RMK AO2 SLP147 T02670233
KBMQ 201543Z AUTO 16005KT 10SM SCT013 BKN018 BKN049 27/23 A3002 RMK AO2 T02670233
KBMQ 201453Z AUTO 15007KT 10SM SCT011 BKN035 26/23 A3002 RMK AO2 SLP146 T02560228 53010
KBMQ 201446Z AUTO 15007KT 10SM SCT009 SCT013 SCT035 26/23 A3001 RMK AO2 T02560228
KBMQ 201353Z AUTO 14005KT 10SM CLR 25/23 A3000 RMK AO2 SLP141 T02500228
KBMQ 201253Z AUTO 18003KT 10SM CLR 24/22 A2999 RMK AO2 SLP136 T02390222
KBMQ 201153Z AUTO 17004KT 10SM FEW014 24/22 A2998 RMK AO2 SLP134 T02390222 10250 20239 53001
KBMQ 201053Z AUTO 00000KT 10SM FEW011 24/22 A2997 RMK AO2 SLP128 T02390222
KBMQ 201043Z AUTO 17003KT 10SM SCT011 24/22 A2997 RMK AO2 T02390222
KBMQ 201004Z AUTO 18004KT 10SM BKN012 24/22 A2997 RMK AO2 T02390217
KBMQ 200953Z AUTO 17004KT 10SM SCT013 24/22 A2997 RMK AO2 SLP129 T02390217
KBMQ 200853Z AUTO 00000KT 10SM FEW016 24/22 A2998 RMK AO2 SLP131 T02440217 58006
KBMQ 200753Z AUTO 16003KT 10SM CLR 24/22 A2999 RMK AO2 SLP135 T02440217
KBMQ 200653Z AUTO 17005KT 10SM CLR 24/22 A3000 RMK AO2 SLP137 T02440217